Time;durP1;ratioP1;P1;durP2;ratioP2;P2;SDS_P1;SDS_P2;PMS_P1;PMS_P2;Temp;Humidity;BMP_temperature;BMP_pressure;BME280_temperature;BME280_humidity;BME280_pressure;Samples;Min_cycle;Max_cycle;Signal;HPM_P1;HPM_P2
2022/07/23 00:00:28;;;;;;;;;;;;;;;24.69;41.52;100755.13;5074161;28;1079;-43
2022/07/23 00:02:53;;;;;;;;;;;;;;;23.71;47.04;100753.59;5069391;28;1032;-42
2022/07/23 00:05:18;;;;;;;;;;;;;;;23.92;42.57;100746.97;5075223;28;1032;-42
2022/07/23 00:07:44;;;;;;;;;;;;;;;24.27;43.20;100755.03;5075689;28;1020;-43
2022/07/23 00:10:09;;;;;;;;;;;;;;;25.09;40.31;100757.19;5057525;28;1055;-43
2022/07/23 00:12:34;;;;;;;;;;;;;;;24.58;40.92;100753.56;5069039;28;1897;-43
2022/07/23 00:15:00;;;;;;;;;;;;;;;23.78;43.60;100752.94;5061989;28;1045;-43
2022/07/23 00:17:25;;;;;;;;;;;;;;;24.03;42.51;100748.53;5069177;28;1036;-43
2022/07/23 00:19:50;;;;;;;;;;;;;;;24.24;42.41;100759.91;5076435;28;1422;-42
2022/07/23 00:22:16;;;;;;;;;;;;;;;24.66;44.12;100755.44;5067081;28;1030;-43
2022/07/23 00:24:41;;;;;;;;;;;;;;;24.89;40.43;100757.50;5066904;28;1029;-43
2022/07/23 00:27:06;;;;;;;;;;;;;;;24.54;43.89;100747.69;5062756;28;976;-43
2022/07/23 00:29:31;;;;;;;;;;;;;;;24.21;41.19;100750.28;5067567;28;1056;-43
2022/07/23 00:31:57;;;;;;;;;;;;;;;23.79;42.95;100747.41;5072082;28;1005;-43
2022/07/23 00:34:22;;;;;;;;;;;;;;;24.06;45.41;100750.03;5069953;28;1966;-43
2022/07/23 00:36:47;;;;;;;;;;;;;;;24.52;41.07;100751.56;5073643;28;1004;-43
2022/07/23 00:39:13;;;;;;;;;;;;;;;24.44;42.41;100750.53;5065395;28;1139;-43
2022/07/23 00:41:38;;;;;;;;;;;;;;;25.05;39.93;100757.53;5070563;28;1095;-42
2022/07/23 00:44:15;;;;;;;;;;;;;;;24.54;41.20;100753.06;5075523;28;1127;-42
2022/07/23 00:46:48;;;;;;;;;;;;;;;23.67;46.98;100757.59;5069074;28;933;-41
2022/07/23 00:49:13;;;;;;;;;;;;;;;24.05;43.12;100753.75;5069595;28;1032;-41
2022/07/23 00:51:39;;;;;;;;;;;;;;;24.21;42.74;100750.28;5059876;28;850;-43
2022/07/23 00:54:04;;;;;;;;;;;;;;;24.90;43.19;100756.47;5071287;28;1890;-43
2022/07/23 00:56:29;;;;;;;;;;;;;;;24.54;41.72;100760.31;5067963;28;1191;-43
2022/07/23 00:58:55;;;;;;;;;;;;;;;23.86;45.17;100753.00;5051623;28;1057;-43
2022/07/23 01:01:20;;;;;;;;;;;;;;;24.01;42.77;100749.69;5067106;28;1140;-43
2022/07/23 01:03:45;;;;;;;;;;;;;;;24.36;42.29;100749.69;5072747;28;878;-43
2022/07/23 01:06:11;;;;;;;;;;;;;;;24.85;43.73;100748.06;5073877;28;1009;-42
2022/07/23 01:08:36;;;;;;;;;;;;;;;24.56;40.95;100747.53;5056777;28;1585;-43
2022/07/23 01:11:02;;;;;;;;;;;;;;;23.67;43.83;100741.47;5061510;28;1036;-43
2022/07/23 01:13:27;;;;;;;;;;;;;;;24.06;42.43;100742.84;5069346;28;1906;-42
2022/07/23 01:15:52;;;;;;;;;;;;;;;24.16;42.32;100740.03;5069562;28;981;-43
2022/07/23 01:18:18;;;;;;;;;;;;;;;24.36;44.65;100741.63;5075483;28;1047;-43
2022/07/23 01:20:43;;;;;;;;;;;;;;;24.90;40.48;100745.72;5073597;28;1152;-43
2022/07/23 01:23:08;;;;;;;;;;;;;;;24.52;42.43;100748.88;5070502;28;1017;-42
2022/07/23 01:25:34;;;;;;;;;;;;;;;24.13;41.69;100737.66;5072009;28;997;-43
2022/07/23 01:27:59;;;;;;;;;;;;;;;23.79;42.80;100733.16;5067088;28;913;-42
2022/07/23 01:30:24;;;;;;;;;;;;;;;23.71;45.62;100731.25;5075130;28;1033;-43
2022/07/23 01:32:50;;;;;;;;;;;;;;;24.57;40.72;100728.53;5072601;28;1890;-43
2022/07/23 01:35:15;;;;;;;;;;;;;;;24.52;41.84;100732.72;5076551;28;989;-43
2022/07/23 01:37:40;;;;;;;;;;;;;;;24.87;42.76;100735.28;5075560;28;1194;-43
2022/07/23 01:40:06;;;;;;;;;;;;;;;25.00;40.67;100732.97;5073118;28;842;-43
2022/07/23 01:42:31;;;;;;;;;;;;;;;24.63;42.74;100732.41;5066394;28;1299;-42
2022/07/23 01:44:56;;;;;;;;;;;;;;;24.38;40.74;100732.38;5061239;28;1410;-43
2022/07/23 01:47:21;;;;;;;;;;;;;;;23.78;42.80;100729.63;5073133;28;989;-43
2022/07/23 01:49:47;;;;;;;;;;;;;;;24.01;45.54;100726.34;5068270;28;1116;-43
2022/07/23 01:52:12;;;;;;;;;;;;;;;24.54;41.07;100723.47;5066297;28;1894;-42
2022/07/23 01:54:38;;;;;;;;;;;;;;;24.42;42.87;100722.13;5071703;28;997;-42
2022/07/23 01:57:03;;;;;;;;;;;;;;;25.03;39.86;100727.25;5057600;28;997;-43
2022/07/23 01:59:29;;;;;;;;;;;;;;;24.72;40.66;100725.19;5074956;28;1127;-42
2022/07/23 02:01:54;;;;;;;;;;;;;;;23.70;45.92;100700.03;5076419;28;1060;-43
2022/07/23 02:04:19;;;;;;;;;;;;;;;23.95;42.63;100727.88;5076409;28;866;-43
2022/07/23 02:06:45;;;;;;;;;;;;;;;24.14;42.72;100725.88;5077957;28;1147;-42
2022/07/23 02:09:10;;;;;;;;;;;;;;;24.90;40.42;100735.81;5072073;28;1037;-43
2022/07/23 02:11:36;;;;;;;;;;;;;;;24.42;41.28;100724.81;5069645;28;1079;-43
2022/07/23 02:14:01;;;;;;;;;;;;;;;23.65;43.70;100722.03;5070868;28;1981;-43
2022/07/23 02:16:26;;;;;;;;;;;;;;;23.91;42.53;100721.13;5067797;28;984;-43
2022/07/23 02:18:51;;;;;;;;;;;;;;;24.20;42.12;100724.44;5071003;28;1034;-43
2022/07/23 02:21:17;;;;;;;;;;;;;;;24.56;44.34;100734.91;5065300;28;1107;-43
2022/07/23 02:23:42;;;;;;;;;;;;;;;24.36;41.26;100723.63;5072264;28;1008;-43
2022/07/23 02:26:07;;;;;;;;;;;;;;;23.67;43.52;100729.91;5068794;28;1012;-43
2022/07/23 02:28:32;;;;;;;;;;;;;;;24.01;42.18;100726.34;5071452;28;957;-43
2022/07/23 02:30:58;;;;;;;;;;;;;;;24.18;41.23;100735.34;5071044;28;1206;-43
2022/07/23 02:33:23;;;;;;;;;;;;;;;24.37;44.21;100737.91;5075519;28;1918;-42
2022/07/23 02:35:48;;;;;;;;;;;;;;;24.83;40.83;100741.00;5073494;28;1158;-43
2022/07/23 02:38:14;;;;;;;;;;;;;;;24.66;41.17;100734.75;5076298;28;1080;-43
2022/07/23 02:40:39;;;;;;;;;;;;;;;23.93;42.69;100737.91;5071706;28;961;-43
2022/07/23 02:43:04;;;;;;;;;;;;;;;23.76;43.11;100738.84;5077448;28;1128;-43
2022/07/23 02:45:30;;;;;;;;;;;;;;;23.80;45.63;100743.75;5071425;28;1068;-43
2022/07/23 02:47:55;;;;;;;;;;;;;;;24.53;41.27;100737.94;5068165;28;934;-41
2022/07/23 02:50:20;;;;;;;;;;;;;;;24.38;40.18;100739.59;5070816;28;1012;-42
2022/07/23 02:52:45;;;;;;;;;;;;;;;23.89;44.53;100736.53;5070766;28;1942;-43
2022/07/23 02:55:11;;;;;;;;;;;;;;;23.78;42.60;100736.84;5076485;28;1087;-43
2022/07/23 02:57:36;;;;;;;;;;;;;;;23.90;43.77;100735.56;5076817;28;1171;-42
2022/07/23 03:00:02;;;;;;;;;;;;;;;24.62;40.64;100741.50;5074633;28;1000;-44
2022/07/23 03:02:27;;;;;;;;;;;;;;;24.60;41.00;100740.81;5068406;28;1322;-38
2022/07/23 03:04:53;;;;;;;;;;;;;;;25.17;40.24;100746.41;5064783;28;1073;-39
2022/07/23 03:07:18;;;;;;;;;;;;;;;24.86;40.75;100755.97;5073857;28;1167;-40
2022/07/23 03:09:43;;;;;;;;;;;;;;;24.65;40.45;100757.31;5071688;28;1390;-39
2022/07/23 03:12:09;;;;;;;;;;;;;;;24.70;39.89;100764.88;5073686;28;1107;-39
2022/07/23 03:14:34;;;;;;;;;;;;;;;24.74;39.76;100760.81;5063714;28;1918;-37
2022/07/23 03:17:00;;;;;;;;;;;;;;;24.68;39.77;100767.72;5062855;28;1191;-41
2022/07/23 03:19:25;;;;;;;;;;;;;;;24.79;39.61;100763.84;5064379;28;1111;-39
2022/07/23 03:21:51;;;;;;;;;;;;;;;24.46;40.07;100767.34;5064599;28;989;-39
2022/07/23 03:24:17;;;;;;;;;;;;;;;24.55;40.98;100770.06;5066757;28;1154;-39
2022/07/23 03:26:43;;;;;;;;;;;;;;;24.61;39.64;100779.31;5064209;28;1040;-39
2022/07/23 03:29:08;;;;;;;;;;;;;;;24.72;39.83;100779.00;5063548;28;1080;-41
2022/07/23 03:31:34;;;;;;;;;;;;;;;24.97;39.23;100768.28;5070571;28;1044;-39
2022/07/23 03:33:59;;;;;;;;;;;;;;;24.81;39.50;100775.28;5068670;28;1902;-38
2022/07/23 03:36:24;;;;;;;;;;;;;;;24.61;41.48;100771.25;5072211;28;1096;-39
2022/07/23 03:38:50;;;;;;;;;;;;;;;24.57;40.20;100770.75;5070406;28;1045;-39
2022/07/23 03:41:16;;;;;;;;;;;;;;;24.72;39.96;100775.47;5067538;28;1080;-38
2022/07/23 03:43:41;;;;;;;;;;;;;;;24.78;39.68;100772.09;5068733;28;989;-39
2022/07/23 03:46:06;;;;;;;;;;;;;;;24.85;39.49;100775.81;5069758;28;1063;-39
2022/07/23 03:48:32;;;;;;;;;;;;;;;24.76;40.55;100774.94;5073649;28;1024;-39
2022/07/23 03:50:57;;;;;;;;;;;;;;;24.65;38.25;100770.75;5057243;28;922;-44
2022/07/23 03:53:22;;;;;;;;;;;;;;;25.31;37.00;100774.47;5058958;28;1979;-40
2022/07/23 03:55:47;;;;;;;;;;;;;;;24.32;39.51;100773.38;5072750;28;1609;-39
2022/07/23 03:58:13;;;;;;;;;;;;;;;24.22;41.44;100768.13;5073912;28;992;-42
2022/07/23 04:00:38;;;;;;;;;;;;;;;24.57;42.99;100776.13;5072434;28;1183;-43
2022/07/23 04:03:03;;;;;;;;;;;;;;;25.52;39.71;100776.66;5074237;28;1138;-44
2022/07/23 04:05:29;;;;;;;;;;;;;;;25.13;39.31;100780.91;5073510;28;946;-43
2022/07/23 04:07:54;;;;;;;;;;;;;;;24.36;40.68;100776.56;5069618;28;953;-42
2022/07/23 04:10:19;;;;;;;;;;;;;;;24.68;41.22;100775.78;5070120;28;1040;-42
2022/07/23 04:12:44;;;;;;;;;;;;;;;25.17;43.24;100782.22;5065974;28;1906;-43
2022/07/23 04:15:10;;;;;;;;;;;;;;;24.85;40.19;100783.88;5071083;28;977;-44
2022/07/23 04:17:35;;;;;;;;;;;;;;;24.19;44.15;100771.97;5064123;28;1008;-43
2022/07/23 04:20:00;;;;;;;;;;;;;;;25.25;40.03;100778.69;5063180;28;1017;-45
2022/07/23 04:22:26;;;;;;;;;;;;;;;25.03;39.74;100778.38;5063922;28;1013;-44
2022/07/23 04:24:51;;;;;;;;;;;;;;;24.05;41.78;100778.78;5068526;28;1040;-46
2022/07/23 04:27:17;;;;;;;;;;;;;;;24.30;42.69;100781.59;5069562;28;992;-46
2022/07/23 04:29:42;;;;;;;;;;;;;;;24.62;44.42;100784.53;5062671;28;943;-46
2022/07/23 04:32:07;;;;;;;;;;;;;;;25.44;40.06;100788.25;5072128;28;969;-47
2022/07/23 04:34:33;;;;;;;;;;;;;;;25.02;40.03;100782.09;5069580;28;1898;-45
2022/07/23 04:36:58;;;;;;;;;;;;;;;24.55;40.74;100789.72;5073008;28;1000;-43
2022/07/23 04:39:23;;;;;;;;;;;;;;;24.64;42.24;100787.06;5072410;28;1146;-44
2022/07/23 04:41:49;;;;;;;;;;;;;;;25.04;43.99;100793.50;5072854;28;930;-44
2022/07/23 04:44:14;;;;;;;;;;;;;;;24.82;41.00;100786.91;5068647;28;1132;-42
2022/07/23 04:46:39;;;;;;;;;;;;;;;23.62;47.19;100778.72;5057829;28;950;-43
2022/07/23 04:49:04;;;;;;;;;;;;;;;24.94;41.58;100790.97;5069139;28;975;-44
2022/07/23 04:51:30;;;;;;;;;;;;;;;25.00;42.18;100788.63;5063892;28;1143;-44
2022/07/23 04:53:55;;;;;;;;;;;;;;;25.91;41.19;100791.22;5067297;28;1967;-45
2022/07/23 04:56:20;;;;;;;;;;;;;;;25.21;40.62;100788.13;5068115;28;1041;-44
2022/07/23 04:58:46;;;;;;;;;;;;;;;24.21;42.01;100786.09;5071515;28;985;-43
2022/07/23 05:01:11;;;;;;;;;;;;;;;24.43;43.19;100780.28;5071835;28;1465;-43
2022/07/23 05:03:36;;;;;;;;;;;;;;;25.14;43.77;100793.31;5072007;28;1146;-44
2022/07/23 05:06:03;;;;;;;;;;;;;;;24.87;41.15;100791.78;5071063;28;1044;-44
2022/07/23 05:08:28;;;;;;;;;;;;;;;24.04;42.15;100793.19;5072270;28;1235;-43
2022/07/23 05:10:53;;;;;;;;;;;;;;;24.11;44.09;100798.78;5075239;28;1127;-42
2022/07/23 05:13:19;;;;;;;;;;;;;;;25.11;42.39;100801.75;5065597;28;1969;-42
2022/07/23 05:15:44;;;;;;;;;;;;;;;24.80;41.53;100794.31;5066145;28;1075;-43
2022/07/23 05:18:09;;;;;;;;;;;;;;;24.11;42.21;100796.09;5068238;28;926;-43
2022/07/23 05:20:35;;;;;;;;;;;;;;;24.01;44.75;100798.06;5071633;28;1159;-43
2022/07/23 05:23:00;;;;;;;;;;;;;;;25.14;41.29;100796.03;5067644;28;1158;-44
2022/07/23 05:25:25;;;;;;;;;;;;;;;24.69;41.64;100793.59;5062705;28;962;-43
2022/07/23 05:27:51;;;;;;;;;;;;;;;24.11;42.24;100795.28;5064485;28;992;-41
2022/07/23 05:30:16;;;;;;;;;;;;;;;24.04;44.53;100800.44;5068676;28;835;-43
2022/07/23 05:32:41;;;;;;;;;;;;;;;25.25;42.85;100792.16;5066961;28;1930;-42
2022/07/23 05:35:07;;;;;;;;;;;;;;;24.64;41.77;100790.56;5068948;28;973;-39
2022/07/23 05:37:32;;;;;;;;;;;;;;;23.84;43.99;100788.06;5066562;28;1005;-41
2022/07/23 05:40:02;;;;;;;;;;;;;;;24.67;42.98;100792.09;5073086;28;1016;-41
2022/07/23 05:42:27;;;;;;;;;;;;;;;25.17;44.46;100790.28;5069567;28;939;-41
2022/07/23 05:44:52;;;;;;;;;;;;;;;24.42;42.22;100783.97;5074751;28;1040;-43
2022/07/23 05:47:17;;;;;;;;;;;;;;;23.66;43.44;100782.78;5069663;28;2414;-42
2022/07/23 05:49:43;;;;;;;;;;;;;;;24.25;44.04;100783.94;5063032;28;1867;-43
2022/07/23 05:52:09;;;;;;;;;;;;;;;25.00;44.23;100785.94;5064458;28;2192;-42
2022/07/23 05:54:35;;;;;;;;;;;;;;;23.93;43.66;100782.75;5058307;28;1898;-42
2022/07/23 05:57:00;;;;;;;;;;;;;;;23.19;44.68;100781.25;5068081;28;2083;-43
2022/07/23 05:59:25;;;;;;;;;;;;;;;23.97;44.87;100778.75;5073024;28;2245;-42
2022/07/23 06:01:51;;;;;;;;;;;;;;;24.63;42.55;100780.81;5071199;28;2074;-44
2022/07/23 06:04:16;;;;;;;;;;;;;;;23.72;43.79;100779.44;5070180;28;1068;-43
2022/07/23 06:06:41;;;;;;;;;;;;;;;23.23;47.48;100778.09;5069289;28;1013;-43
2022/07/23 06:09:07;;;;;;;;;;;;;;;24.50;43.72;100778.63;5072254;28;1163;-43
2022/07/23 06:11:32;;;;;;;;;;;;;;;24.17;43.09;100781.22;5068380;28;1063;-43
2022/07/23 06:13:58;;;;;;;;;;;;;;;23.52;44.22;100784.22;5072138;28;1961;-38
2022/07/23 06:16:23;;;;;;;;;;;;;;;24.16;44.67;100782.16;5067774;28;1068;-43
2022/07/23 06:18:48;;;;;;;;;;;;;;;24.18;43.27;100781.03;5073146;28;872;-43
2022/07/23 06:21:14;;;;;;;;;;;;;;;23.26;44.82;100779.63;5072200;28;1052;-43
2022/07/23 06:23:39;;;;;;;;;;;;;;;23.93;45.45;100780.06;5072566;28;1048;-44
2022/07/23 06:26:04;;;;;;;;;;;;;;;24.32;43.52;100782.25;5069645;28;1195;-43
2022/07/23 06:28:29;;;;;;;;;;;;;;;23.26;45.62;100781.44;5063721;28;1020;-43
2022/07/23 06:30:55;;;;;;;;;;;;;;;22.91;50.46;100775.97;5066227;28;1953;-43
2022/07/23 06:33:20;;;;;;;;;;;;;;;24.41;44.15;100780.44;5075751;28;1890;-43
2022/07/23 06:35:45;;;;;;;;;;;;;;;23.74;44.73;100773.91;5074100;28;1157;-43
2022/07/23 06:38:11;;;;;;;;;;;;;;;23.15;45.82;100775.34;5072069;28;1021;-43
2022/07/23 06:40:36;;;;;;;;;;;;;;;22.87;50.29;100772.78;5071142;28;937;-42
2022/07/23 06:43:01;;;;;;;;;;;;;;;24.46;44.26;100780.78;5065833;28;1150;-43
2022/07/23 06:45:27;;;;;;;;;;;;;;;23.52;45.50;100781.53;5063451;28;1068;-42
2022/07/23 06:47:52;;;;;;;;;;;;;;;23.12;46.15;100779.19;5068473;28;1008;-44
2022/07/23 06:50:17;;;;;;;;;;;;;;;22.91;51.30;100775.97;5070879;28;981;-43
2022/07/23 06:52:42;;;;;;;;;;;;;;;24.38;44.49;100786.16;5072299;28;1893;-43
2022/07/23 06:55:08;;;;;;;;;;;;;;;23.66;45.34;100785.47;5063393;28;995;-43
2022/07/23 06:57:33;;;;;;;;;;;;;;;23.04;46.81;100784.47;5071144;28;973;-43
2022/07/23 06:59:58;;;;;;;;;;;;;;;22.82;49.88;100781.25;5073776;28;1135;-43
2022/07/23 07:02:24;;;;;;;;;;;;;;;24.25;45.06;100781.25;5074190;28;2800;-44
2022/07/23 07:04:49;;;;;;;;;;;;;;;23.72;45.44;100781.31;5076408;28;1103;-43
2022/07/23 07:07:14;;;;;;;;;;;;;;;22.89;47.29;100778.81;5066504;28;867;-43
2022/07/23 07:09:40;;;;;;;;;;;;;;;22.69;50.53;100780.81;5068828;28;1068;-43
2022/07/23 07:12:05;;;;;;;;;;;;;;;24.14;45.62;100778.81;5067901;28;981;-43
2022/07/23 07:14:30;;;;;;;;;;;;;;;23.76;45.56;100776.44;5072684;28;1917;-44
2022/07/23 07:16:56;;;;;;;;;;;;;;;23.15;46.64;100774.50;5069331;28;1092;-43
2022/07/23 07:19:21;;;;;;;;;;;;;;;22.73;52.64;100774.16;5068664;28;911;-42
2022/07/23 07:21:46;;;;;;;;;;;;;;;24.41;44.88;100776.91;5064361;28;1025;-43
2022/07/23 07:24:12;;;;;;;;;;;;;;;23.53;46.19;100775.16;5068441;28;1226;-43
2022/07/23 07:26:39;;;;;;;;;;;;;;;22.85;47.40;100770.25;5073370;28;980;-43
2022/07/23 07:29:04;;;;;;;;;;;;;;;23.25;49.31;100775.25;5071356;28;1114;-44
2022/07/23 07:31:29;;;;;;;;;;;;;;;24.79;45.80;100785.38;5065378;28;2403;-43
2022/07/23 07:33:56;;;;;;;;;;;;;;;23.29;46.82;100776.63;5074222;28;1955;-43
2022/07/23 07:36:22;;;;;;;;;;;;;;;22.83;47.63;100772.25;5072729;28;969;-43
2022/07/23 07:38:47;;;;;;;;;;;;;;;22.60;48.62;100778.06;5070984;28;1059;-43
2022/07/23 07:41:12;;;;;;;;;;;;;;;24.04;45.77;100782.47;5068868;28;977;-43
2022/07/23 07:43:38;;;;;;;;;;;;;;;23.99;45.16;100786.66;5063262;28;1091;-43
2022/07/23 07:46:03;;;;;;;;;;;;;;;23.06;47.08;100777.13;5075888;28;957;-43
2022/07/23 07:48:28;;;;;;;;;;;;;;;22.89;47.06;100778.00;5076414;28;1163;-43
2022/07/23 07:50:54;;;;;;;;;;;;;;;22.53;49.50;100770.72;5066684;28;945;-43
2022/07/23 07:53:19;;;;;;;;;;;;;;;24.00;45.98;100772.19;5067119;28;1898;-42
2022/07/23 07:55:45;;;;;;;;;;;;;;;23.83;45.50;100775.66;5063499;28;1029;-42
2022/07/23 07:58:10;;;;;;;;;;;;;;;22.95;47.48;100772.00;5072115;28;1005;-43
2022/07/23 08:00:36;;;;;;;;;;;;;;;22.78;47.42;100766.50;5068979;28;2385;-43
2022/07/23 08:03:01;;;;;;;;;;;;;;;22.45;53.14;100774.16;5069908;28;1060;-43
2022/07/23 08:05:27;;;;;;;;;;;;;;;24.36;44.72;100766.63;5071445;28;1194;-42
2022/07/23 08:07:52;;;;;;;;;;;;;;;23.27;46.83;100769.75;5070360;28;950;-44
2022/07/23 08:10:17;;;;;;;;;;;;;;;22.60;47.95;100775.38;5074362;28;1666;-43
2022/07/23 08:12:45;;;;;;;;;;;;;;;22.46;48.05;100767.78;5068451;28;1969;-43
2022/07/23 08:15:10;;;;;;;;;;;;;;;23.54;47.16;100774.13;5064417;28;1076;-43
2022/07/23 08:17:35;;;;;;;;;;;;;;;23.92;45.70;100779.22;5064518;28;932;-42
2022/07/23 08:20:01;;;;;;;;;;;;;;;22.85;47.62;100774.75;5063601;28;1040;-43
2022/07/23 08:22:40;;;;;;;;;;;;;;;22.44;48.11;100773.31;5066114;28;1545;-43
2022/07/23 08:25:06;;;;;;;;;;;;;;;23.28;48.62;100771.41;5072823;28;1048;-42
2022/07/23 08:27:31;;;;;;;;;;;;;;;24.33;45.02;100772.34;5070834;28;1171;-43
2022/07/23 08:29:56;;;;;;;;;;;;;;;22.93;47.54;100771.31;5072164;28;1118;-43
2022/07/23 08:32:21;;;;;;;;;;;;;;;22.57;48.11;100774.81;5072010;28;2866;-43
2022/07/23 08:34:47;;;;;;;;;;;;;;;22.84;49.13;100770.38;5076072;28;1974;-42
2022/07/23 08:37:12;;;;;;;;;;;;;;;24.58;41.82;100770.56;5069444;28;885;-42
2022/07/23 08:39:37;;;;;;;;;;;;;;;24.25;39.57;100766.94;5064164;28;1167;-41
2022/07/23 08:42:03;;;;;;;;;;;;;;;23.79;40.07;100768.09;5067638;28;968;-42
2022/07/23 08:44:28;;;;;;;;;;;;;;;23.49;41.68;100771.06;5049536;28;1017;-42
2022/07/23 08:46:53;;;;;;;;;;;;;;;23.80;40.81;100772.44;5068394;28;1052;-42
2022/07/23 08:49:18;;;;;;;;;;;;;;;23.66;41.58;100774.72;5052929;28;1044;-40
2022/07/23 08:51:44;;;;;;;;;;;;;;;23.73;41.21;100767.72;5053903;28;1001;-42
2022/07/23 08:54:09;;;;;;;;;;;;;;;23.62;41.19;100775.19;5070507;28;1905;-41
2022/07/23 08:56:34;;;;;;;;;;;;;;;23.46;42.14;100774.09;5073476;28;1187;-42
2022/07/23 08:59:00;;;;;;;;;;;;;;;23.40;42.21;100770.22;5075857;28;1016;-41
2022/07/23 09:01:25;;;;;;;;;;;;;;;23.31;42.18;100774.63;5041315;28;2377;-42
2022/07/23 09:03:50;;;;;;;;;;;;;;;23.90;40.58;100769.63;5067211;28;1052;-42
2022/07/23 09:06:16;;;;;;;;;;;;;;;23.91;40.92;100769.47;5049547;28;1175;-42
2022/07/23 09:08:41;;;;;;;;;;;;;;;24.00;40.69;100775.75;5068480;28;1012;-43
2022/07/23 09:11:10;;;;;;;;;;;;;;;23.65;41.46;100778.41;5072602;28;1163;-42
2022/07/23 09:13:39;;;;;;;;;;;;;;;23.45;41.44;100788.53;5070321;28;1973;-42
2022/07/23 09:16:14;;;;;;;;;;;;;;;23.07;43.11;100786.03;5073395;28;1052;-42
2022/07/23 09:18:41;;;;;;;;;;;;;;;23.94;41.91;100787.13;5071981;28;1147;-41
2022/07/23 09:21:06;;;;;;;;;;;;;;;25.40;39.52;100784.25;5062684;28;1033;-41
2022/07/23 09:23:41;;;;;;;;;;;;;;;24.02;40.04;100789.00;5073004;28;1055;-41
2022/07/23 09:26:16;;;;;;;;;;;;;;;23.38;40.17;100782.06;5060612;28;958;-43
2022/07/23 09:28:53;;;;;;;;;;;;;;;23.01;41.22;100787.47;5074470;28;1076;-42
2022/07/23 09:31:18;;;;;;;;;;;;;;;23.27;41.88;100781.31;5074833;28;2549;-42
2022/07/23 09:33:43;;;;;;;;;;;;;;;23.31;42.11;100780.00;5054720;28;1894;-43
2022/07/23 09:36:09;;;;;;;;;;;;;;;23.71;40.91;100779.59;5068964;28;1084;-42
2022/07/23 09:38:34;;;;;;;;;;;;;;;23.53;41.67;100780.53;5072939;28;992;-43
2022/07/23 09:41:09;;;;;;;;;;;;;;;23.64;41.73;100778.56;5068831;28;1068;-41
2022/07/23 09:43:34;;;;;;;;;;;;;;;23.59;41.87;100773.66;5065952;28;1565;-42
2022/07/23 09:46:18;;;;;;;;;;;;;;;23.60;41.55;100773.53;5074138;28;1150;-42
2022/07/23 09:48:44;;;;;;;;;;;;;;;23.83;41.14;100770.28;5067902;28;1040;-42
2022/07/23 09:51:09;;;;;;;;;;;;;;;23.82;41.03;100781.19;5076322;28;1229;-42
2022/07/23 09:53:34;;;;;;;;;;;;;;;23.35;42.00;100778.69;5078341;28;1901;-41
2022/07/23 09:56:00;;;;;;;;;;;;;;;23.09;43.21;100778.63;5078177;28;888;-41
2022/07/23 09:58:26;;;;;;;;;;;;;;;22.87;44.00;100773.59;5049520;28;1404;-40
2022/07/23 10:00:51;;;;;;;;;;;;;;;23.07;43.73;100772.59;5068160;28;2541;-41
2022/07/23 10:03:17;;;;;;;;;;;;;;;24.21;41.96;100779.88;5070020;28;1199;-42
2022/07/23 10:05:43;;;;;;;;;;;;;;;25.43;39.14;100777.66;5066334;28;1009;-42
2022/07/23 10:08:08;;;;;;;;;;;;;;;24.18;39.60;100775.66;5064594;28;1024;-41
2022/07/23 10:10:34;;;;;;;;;;;;;;;23.65;41.52;100775.72;5054621;28;1267;-42
2022/07/23 10:15:43;;;;;;;;;;;;;;;22.89;44.04;100769.94;5044827;28;1037;-41
2022/07/23 10:18:09;;;;;;;;;;;;;;;22.71;44.89;100774.28;5054023;28;1176;-42
2022/07/23 10:20:34;;;;;;;;;;;;;;;22.80;45.07;100777.06;5054682;28;1094;-42
2022/07/23 10:23:23;;;;;;;;;;;;;;;23.46;47.09;100766.88;5065495;28;993;-41
2022/07/23 10:25:57;;;;;;;;;;;;;;;25.39;41.62;100763.69;5050987;28;1201;-42
2022/07/23 10:28:41;;;;;;;;;;;;;;;23.58;42.82;100770.16;5056302;28;1008;-42
2022/07/23 10:31:09;;;;;;;;;;;;;;;23.23;44.58;100763.84;5051415;28;2507;-41
2022/07/23 10:33:41;;;;;;;;;;;;;;;23.38;44.54;100758.75;5073107;28;1907;-42
2022/07/23 10:36:20;;;;;;;;;;;;;;;23.16;44.88;100760.94;5049876;28;1204;-42
2022/07/23 10:38:56;;;;;;;;;;;;;;;23.50;45.24;100763.88;5074258;28;1083;-41
2022/07/23 10:41:32;;;;;;;;;;;;;;;24.09;44.04;100761.31;5074832;28;1151;-41
2022/07/23 10:44:07;;;;;;;;;;;;;;;23.90;44.46;100757.06;5060911;28;1005;-41
2022/07/23 10:49:21;;;;;;;;;;;;;;;24.00;45.30;100753.38;5077173;28;1028;-41
2022/07/23 10:52:22;;;;;;;;;;;;;;;23.70;46.32;100751.94;5071409;28;949;-42
2022/07/23 10:54:51;;;;;;;;;;;;;;;24.20;45.59;100762.91;4971628;28;1891;-42
2022/07/23 10:57:17;;;;;;;;;;;;;;;23.90;46.18;100759.75;5053121;28;988;-41
2022/07/23 11:00:11;;;;;;;;;;;;;;;23.91;46.16;100768.63;5070570;28;1020;-42
2022/07/23 11:02:37;;;;;;;;;;;;;;;23.45;47.12;100759.00;5064895;28;2829;-43
2022/07/23 11:05:06;;;;;;;;;;;;;;;23.83;46.78;100759.53;5070699;28;1101;-42
2022/07/23 11:07:31;;;;;;;;;;;;;;;23.89;46.24;100762.59;5071013;28;1047;-42
2022/07/23 11:09:56;;;;;;;;;;;;;;;24.21;49.69;100755.66;5074747;28;1080;-41
2022/07/23 11:12:27;;;;;;;;;;;;;;;25.61;42.90;100753.22;5076768;28;1004;-42
2022/07/23 11:15:05;;;;;;;;;;;;;;;24.72;43.88;100764.69;5062325;28;1905;-43
2022/07/23 11:17:32;;;;;;;;;;;;;;;24.32;44.31;100765.31;5069159;28;1040;-42
2022/07/23 11:20:09;;;;;;;;;;;;;;;24.06;44.56;100766.16;5066697;28;965;-43
2022/07/23 11:22:43;;;;;;;;;;;;;;;24.00;45.75;100766.81;5076049;28;1214;-41
2022/07/23 11:25:29;;;;;;;;;;;;;;;24.19;45.52;100760.38;5071708;28;949;-42
2022/07/23 11:27:54;;;;;;;;;;;;;;;24.21;45.68;100767.28;5058121;28;1676;-41
2022/07/23 11:30:26;;;;;;;;;;;;;;;24.62;44.28;100759.47;5071440;28;2407;-42
2022/07/23 11:32:51;;;;;;;;;;;;;;;24.49;44.38;100762.66;5069955;28;1953;-41
2022/07/23 11:35:23;;;;;;;;;;;;;;;24.53;44.54;100766.69;5073694;28;1052;-41
2022/07/23 11:37:48;;;;;;;;;;;;;;;24.65;43.76;100759.13;5071061;28;1147;-41
2022/07/23 11:40:15;;;;;;;;;;;;;;;24.49;44.16;100762.66;5074383;28;1150;-41
2022/07/23 11:42:57;;;;;;;;;;;;;;;24.64;43.32;100763.66;5064029;28;1123;-41
2022/07/23 11:45:22;;;;;;;;;;;;;;;24.60;42.92;100756.94;5073698;28;942;-41
2022/07/23 11:47:47;;;;;;;;;;;;;;;24.36;43.05;100752.38;5076343;28;1088;-40
2022/07/23 11:50:13;;;;;;;;;;;;;;;24.06;43.22;100760.78;5063868;28;1060;-41
2022/07/23 11:52:38;;;;;;;;;;;;;;;24.08;43.89;100762.34;5070180;28;1965;-41
2022/07/23 11:55:07;;;;;;;;;;;;;;;24.54;44.06;100757.63;5070722;28;1021;-40
2022/07/23 11:57:36;;;;;;;;;;;;;;;24.50;42.97;100767.88;5068317;28;905;-41
2022/07/23 12:00:06;;;;;;;;;;;;;;;24.54;43.68;100766.50;5070257;28;1067;-40
2022/07/23 12:02:32;;;;;;;;;;;;;;;24.37;43.46;100762.13;5070998;28;2849;-41
2022/07/23 12:04:57;;;;;;;;;;;;;;;23.87;44.80;100764.59;5072917;28;1080;-41
2022/07/23 12:07:32;;;;;;;;;;;;;;;23.95;45.33;100773.53;5068381;28;886;-41
2022/07/23 12:09:58;;;;;;;;;;;;;;;23.92;46.27;100768.47;5066707;28;1294;-41
2022/07/23 12:12:23;;;;;;;;;;;;;;;25.33;42.81;100760.84;5066992;28;1052;-41
2022/07/23 12:14:50;;;;;;;;;;;;;;;25.18;41.91;100759.69;5069294;28;1965;-41
2022/07/23 12:17:15;;;;;;;;;;;;;;;23.95;43.74;100756.56;5067624;28;1055;-41
2022/07/23 12:19:40;;;;;;;;;;;;;;;23.97;45.31;100759.94;5071192;28;960;-41
2022/07/23 12:22:05;;;;;;;;;;;;;;;24.11;44.81;100757.66;5050796;28;978;-39
2022/07/23 12:24:31;;;;;;;;;;;;;;;24.29;44.58;100760.25;5047541;28;1005;-41
2022/07/23 12:27:09;;;;;;;;;;;;;;;24.28;44.34;100763.94;5071258;28;1000;-42
2022/07/23 12:29:36;;;;;;;;;;;;;;;24.20;46.80;100751.31;5062871;28;997;-41
2022/07/23 12:32:01;;;;;;;;;;;;;;;25.37;42.74;100759.50;5071945;28;2541;-42
2022/07/23 12:34:26;;;;;;;;;;;;;;;24.91;43.35;100764.41;5069439;28;1917;-42
2022/07/23 12:36:52;;;;;;;;;;;;;;;24.50;43.65;100765.19;5055510;28;1084;-41
2022/07/23 12:39:30;;;;;;;;;;;;;;;23.95;43.92;100760.09;5073265;28;1135;-41
2022/07/23 12:41:56;;;;;;;;;;;;;;;24.02;44.52;100763.00;5075300;28;1080;-41
2022/07/23 12:44:21;;;;;;;;;;;;;;;24.17;43.83;100754.34;5069319;28;1389;-41
2022/07/23 12:46:49;;;;;;;;;;;;;;;23.84;44.77;100757.69;5069978;28;1000;-40
2022/07/23 12:49:24;;;;;;;;;;;;;;;23.64;44.97;100749.03;5047204;28;1303;-41